Rentiesville, Oklahoma
Current Conditions -  °F | °C
As of 11:53 AM on Wednesday 28 Jan 2015 (Local Time) from KMKO Reporting Station
Clear Clear  
Wind Chill: 63°   Ceiling: Unl
Heat Index: 63°   Visibility: 10mi
Dew Point: 39°   Wind: 16mph
Humidity: 41%   Direction: 150°SSE
Pressure: 30.04"   Gusts: NA
Location:  35.52°N, 95.49°W
Report Text: KMKO 281753Z AUTO 15014KT 10SM CLR 17/04 A3004 RMK AO2 SLP169 T01720039 10172 20061 58022
Loading
Personal Weather Stations






























Interactive Weather Map New forecast layout! Learn more

10-Day Weather Forecast

Advertisements
Track Severe Weather on mobile